createdAt,value
2023-10-05T00:00:41.091Z,58.30
2023-10-05T00:01:57.733Z,58.43
2023-10-05T00:03:03.965Z,58.57
2023-10-05T00:04:08.680Z,58.59
2023-10-05T00:05:11.923Z,58.49
2023-10-05T00:06:15.076Z,58.33
2023-10-05T00:07:21.506Z,58.13
2023-10-05T00:08:24.038Z,58.17
2023-10-05T00:09:26.343Z,58.22
2023-10-05T00:10:29.674Z,58.24
2023-10-05T00:11:31.959Z,58.24
2023-10-05T00:12:36.211Z,58.17
2023-10-05T00:13:38.653Z,58.00
2023-10-05T00:14:41.878Z,58.07
2023-10-05T00:15:46.137Z,58.07
2023-10-05T00:16:49.133Z,58.02
2023-10-05T00:17:52.435Z,57.88
2023-10-05T00:18:55.054Z,57.67
2023-10-05T00:20:00.009Z,57.65
2023-10-05T00:21:02.897Z,57.58
2023-10-05T00:22:06.060Z,57.61
2023-10-05T00:23:10.177Z,57.61
2023-10-05T00:24:13.386Z,57.68
2023-10-05T00:25:16.234Z,57.65
2023-10-05T00:26:24.549Z,57.68
2023-10-05T00:27:26.981Z,57.79
2023-10-05T00:28:30.595Z,57.87
2023-10-05T00:29:41.677Z,57.89
2023-10-05T00:30:45.412Z,57.98
2023-10-05T00:31:48.670Z,58.05
2023-10-05T00:32:57.183Z,58.16
2023-10-05T00:33:59.764Z,58.25
2023-10-05T00:35:17.861Z,58.39
2023-10-05T00:36:21.802Z,58.53
2023-10-05T00:37:27.427Z,58.56
2023-10-05T00:38:30.391Z,58.61
2023-10-05T00:39:33.557Z,58.73
2023-10-05T00:40:37.931Z,58.51
2023-10-05T00:41:41.202Z,58.60
2023-10-05T00:42:43.534Z,58.68
2023-10-05T00:43:47.599Z,58.63
2023-10-05T00:44:49.836Z,58.83
2023-10-05T00:45:53.480Z,58.88
2023-10-05T00:46:56.441Z,58.95
2023-10-05T00:48:04.207Z,59.06
2023-10-05T00:49:15.291Z,59.15
2023-10-05T00:50:20.619Z,59.29
2023-10-05T00:51:31.677Z,59.35
2023-10-05T00:52:35.834Z,59.23
2023-10-05T00:53:40.871Z,59.23
2023-10-05T00:54:46.342Z,59.26
2023-10-05T00:55:58.238Z,59.27
2023-10-05T00:57:03.388Z,59.28
2023-10-05T00:58:11.851Z,59.18
2023-10-05T00:59:21.937Z,59.25
2023-10-05T01:00:28.885Z,59.29
2023-10-05T01:01:43.877Z,59.17
2023-10-05T01:03:06.679Z,59.08
2023-10-05T01:04:24.971Z,59.01
2023-10-05T01:05:36.519Z,58.87
2023-10-05T01:06:42.876Z,58.81
2023-10-05T01:07:50.543Z,58.68
2023-10-05T01:09:01.483Z,58.69
2023-10-05T01:10:31.050Z,58.41
2023-10-05T01:11:42.529Z,58.19
2023-10-05T01:12:46.838Z,58.19
2023-10-05T01:13:50.075Z,58.12
2023-10-05T01:14:53.891Z,58.16
2023-10-05T01:15:56.492Z,58.13
2023-10-05T01:17:00.303Z,58.28
2023-10-05T01:18:03.754Z,58.10
2023-10-05T01:19:09.097Z,58.07
2023-10-05T01:20:23.760Z,58.08
2023-10-05T01:21:28.431Z,58.05
2023-10-05T01:22:34.309Z,58.05
2023-10-05T01:23:40.307Z,57.89
2023-10-05T01:24:42.878Z,57.93
2023-10-05T01:25:46.065Z,57.91
2023-10-05T01:26:48.290Z,57.84
2023-10-05T01:27:53.074Z,57.73
2023-10-05T01:28:55.673Z,57.71
2023-10-05T01:29:59.111Z,57.65
2023-10-05T01:31:05.427Z,57.69
2023-10-05T01:32:08.688Z,57.70
2023-10-05T01:33:12.660Z,57.58
2023-10-05T01:34:15.881Z,57.49
2023-10-05T01:35:19.165Z,57.42
2023-10-05T01:36:23.979Z,57.39
2023-10-05T01:37:27.854Z,57.42
2023-10-05T01:38:30.991Z,57.46
2023-10-05T01:39:36.581Z,57.45
2023-10-05T01:40:39.981Z,57.41
2023-10-05T01:41:42.429Z,57.51
2023-10-05T01:42:45.928Z,57.51
2023-10-05T01:43:50.174Z,57.63
2023-10-05T01:44:52.907Z,57.69
2023-10-05T01:45:56.161Z,57.78
2023-10-05T01:47:00.023Z,57.84
2023-10-05T01:48:09.045Z,57.89
2023-10-05T01:49:11.398Z,57.87
2023-10-05T01:50:19.988Z,57.97
2023-10-05T01:51:25.121Z,58.09
2023-10-05T01:52:31.422Z,58.23
2023-10-05T01:53:34.372Z,58.37
2023-10-05T01:54:38.986Z,58.48
2023-10-05T01:55:41.238Z,58.46
2023-10-05T01:56:48.958Z,58.43
2023-10-05T01:57:51.625Z,58.60
2023-10-05T01:58:56.159Z,58.59
2023-10-05T02:00:00.346Z,58.64
2023-10-05T02:01:05.032Z,58.73
2023-10-05T02:02:10.912Z,58.79
2023-10-05T02:03:14.819Z,58.88
2023-10-05T02:04:17.299Z,58.98
2023-10-05T02:05:21.955Z,59.09
2023-10-05T02:06:24.237Z,59.20
2023-10-05T02:07:28.761Z,59.27
2023-10-05T02:08:34.794Z,59.37
2023-10-05T02:09:39.862Z,59.41
2023-10-05T02:10:42.054Z,59.46
2023-10-05T02:11:45.995Z,59.52
2023-10-05T02:12:50.522Z,59.44
2023-10-05T02:13:54.862Z,59.48
2023-10-05T02:14:59.051Z,59.47
2023-10-05T02:16:02.345Z,59.50
2023-10-05T02:17:04.981Z,59.60
2023-10-05T02:18:19.434Z,59.60
2023-10-05T02:19:21.667Z,59.70
2023-10-05T02:20:42.723Z,59.75
2023-10-05T02:21:46.597Z,59.84
2023-10-05T02:22:50.425Z,59.87
2023-10-05T02:23:58.209Z,59.95
2023-10-05T02:25:09.176Z,59.93
2023-10-05T02:26:25.112Z,60.13
2023-10-05T02:27:30.153Z,60.07
2023-10-05T02:28:35.008Z,60.10
2023-10-05T02:29:41.169Z,60.11
2023-10-05T02:30:45.661Z,60.13
2023-10-05T02:31:58.679Z,60.13
2023-10-05T02:33:02.701Z,60.26
2023-10-05T02:34:08.235Z,60.31
2023-10-05T02:35:19.330Z,60.35
2023-10-05T02:36:27.748Z,60.43
2023-10-05T02:37:30.226Z,60.39
2023-10-05T02:38:34.313Z,60.40
2023-10-05T02:39:38.404Z,60.47
2023-10-05T02:40:47.963Z,60.45
2023-10-05T02:41:52.195Z,60.45
2023-10-05T02:42:56.110Z,60.41
2023-10-05T02:43:59.493Z,60.50
2023-10-05T02:45:04.803Z,60.47
2023-10-05T02:46:11.876Z,60.47
2023-10-05T02:47:16.436Z,60.54
2023-10-05T02:48:18.657Z,60.46
2023-10-05T02:49:25.514Z,60.49
2023-10-05T02:50:29.230Z,60.47
2023-10-05T02:51:32.751Z,60.53
2023-10-05T02:52:34.969Z,60.54
2023-10-05T02:53:42.342Z,60.55
2023-10-05T02:54:44.594Z,60.54
2023-10-05T02:55:52.619Z,60.62
2023-10-05T02:56:55.147Z,60.66
2023-10-05T02:58:00.447Z,60.63
2023-10-05T02:59:04.206Z,60.70
2023-10-05T03:00:09.594Z,60.78
2023-10-05T03:01:12.113Z,60.76
2023-10-05T03:02:20.010Z,60.80
2023-10-05T03:03:22.717Z,60.86
2023-10-05T03:04:45.672Z,60.88
2023-10-05T03:05:49.549Z,60.99
2023-10-05T03:06:54.331Z,61.00
2023-10-05T03:07:57.931Z,60.92
2023-10-05T03:09:08.325Z,61.03
2023-10-05T03:10:16.885Z,61.03
2023-10-05T03:11:21.370Z,61.11
2023-10-05T03:12:24.576Z,61.16
2023-10-05T03:13:28.330Z,61.23
2023-10-05T03:14:30.599Z,61.18
2023-10-05T03:15:35.822Z,61.12
2023-10-05T03:16:44.893Z,61.19
2023-10-05T03:17:49.908Z,61.26
2023-10-05T03:18:52.178Z,61.27
2023-10-05T03:19:56.017Z,61.23
2023-10-05T03:20:59.436Z,61.32
2023-10-05T03:22:06.815Z,61.32
2023-10-05T03:23:10.713Z,61.35
2023-10-05T03:24:15.642Z,61.32
2023-10-05T03:25:18.145Z,61.34
2023-10-05T03:26:22.814Z,61.33
2023-10-05T03:27:27.384Z,61.52
2023-10-05T03:28:35.134Z,61.31
2023-10-05T03:29:39.623Z,61.39
2023-10-05T03:30:42.787Z,61.38
2023-10-05T03:31:53.826Z,61.39
2023-10-05T03:33:01.779Z,61.35
2023-10-05T03:34:07.031Z,61.30
2023-10-05T03:35:11.154Z,61.30
2023-10-05T03:36:15.486Z,61.27
2023-10-05T03:37:18.793Z,61.34
2023-10-05T03:38:21.133Z,61.42
2023-10-05T03:39:27.050Z,61.49
2023-10-05T03:40:36.743Z,61.67
2023-10-05T03:41:40.544Z,61.48
2023-10-05T03:42:47.705Z,61.45
2023-10-05T03:43:50.162Z,61.55
2023-10-05T03:45:01.996Z,61.43
2023-10-05T03:46:08.139Z,61.34
2023-10-05T03:47:12.616Z,61.16
2023-10-05T03:48:15.222Z,61.14
2023-10-05T03:49:22.891Z,61.26
2023-10-05T03:50:25.473Z,61.40
2023-10-05T03:51:29.751Z,61.47
2023-10-05T03:52:34.065Z,61.42
2023-10-05T03:53:37.481Z,61.44
2023-10-05T03:54:39.929Z,61.25
2023-10-05T03:55:43.076Z,61.26
2023-10-05T03:56:47.053Z,61.25
2023-10-05T03:57:51.205Z,61.24
2023-10-05T03:58:53.833Z,61.23
2023-10-05T04:00:00.352Z,61.20
2023-10-05T04:01:05.826Z,61.17
2023-10-05T04:02:09.499Z,61.20
2023-10-05T04:03:11.910Z,61.25
2023-10-05T04:04:15.216Z,61.19
2023-10-05T04:05:19.778Z,61.20
2023-10-05T04:06:25.109Z,61.29
2023-10-05T04:07:29.701Z,61.27
2023-10-05T04:08:33.172Z,61.27
2023-10-05T04:09:37.128Z,61.33
2023-10-05T04:10:48.553Z,61.23
2023-10-05T04:11:52.606Z,61.14
2023-10-05T04:12:56.412Z,61.27
2023-10-05T04:13:58.902Z,61.26
2023-10-05T04:15:01.372Z,61.35
2023-10-05T04:16:08.043Z,61.33
2023-10-05T04:17:12.672Z,61.43
2023-10-05T04:18:16.664Z,61.36
2023-10-05T04:19:19.194Z,61.37
2023-10-05T04:20:29.435Z,61.37
2023-10-05T04:21:31.821Z,61.38
2023-10-05T04:22:35.002Z,61.39
2023-10-05T04:23:37.207Z,61.40
2023-10-05T04:24:40.383Z,61.48
2023-10-05T04:25:42.521Z,61.55
2023-10-05T04:26:47.229Z,61.47
2023-10-05T04:27:50.771Z,61.24
2023-10-05T04:28:58.931Z,61.36
2023-10-05T04:30:01.155Z,61.38
2023-10-05T04:31:07.680Z,61.49
2023-10-05T04:32:13.434Z,61.51
2023-10-05T04:33:15.876Z,61.42
2023-10-05T04:34:20.970Z,61.39
2023-10-05T04:35:24.514Z,61.43
2023-10-05T04:36:27.887Z,61.42
2023-10-05T04:37:31.744Z,61.48
2023-10-05T04:38:34.070Z,61.56
2023-10-05T04:39:37.564Z,61.44
2023-10-05T04:40:40.213Z,61.13
2023-10-05T04:41:50.836Z,61.04
2023-10-05T04:42:57.675Z,61.06
2023-10-05T04:44:01.863Z,61.18
2023-10-05T04:45:12.806Z,61.10
2023-10-05T04:46:19.149Z,61.01
2023-10-05T04:47:21.405Z,60.78
2023-10-05T04:48:24.991Z,60.71
2023-10-05T04:49:28.702Z,60.76
2023-10-05T04:50:30.954Z,60.56
2023-10-05T04:51:33.614Z,60.47
2023-10-05T04:52:36.862Z,60.55
2023-10-05T04:53:39.798Z,60.55
2023-10-05T04:54:44.369Z,60.60
2023-10-05T04:55:47.814Z,60.58
2023-10-05T04:57:04.341Z,60.90
2023-10-05T04:58:22.417Z,61.32
2023-10-05T04:59:38.424Z,61.47
2023-10-05T05:01:16.622Z,61.34
2023-10-05T05:02:22.664Z,61.48
2023-10-05T05:03:49.119Z,61.73
2023-10-05T05:05:08.765Z,61.31
2023-10-05T05:06:12.563Z,61.38
2023-10-05T05:07:14.873Z,61.47
2023-10-05T05:08:18.003Z,61.65
2023-10-05T05:09:20.583Z,61.58
2023-10-05T05:10:23.711Z,61.62
2023-10-05T05:11:26.767Z,61.57
2023-10-05T05:12:31.026Z,61.49
2023-10-05T05:13:34.551Z,61.84
2023-10-05T05:14:42.426Z,62.15
2023-10-05T05:15:44.586Z,62.05
2023-10-05T05:16:47.971Z,62.07
2023-10-05T05:17:50.273Z,62.23
2023-10-05T05:18:56.857Z,62.56
2023-10-05T05:19:59.257Z,62.61
2023-10-05T05:21:02.382Z,62.73
2023-10-05T05:22:06.536Z,62.88
2023-10-05T05:23:11.463Z,62.76
2023-10-05T05:24:14.975Z,62.44
2023-10-05T05:25:21.308Z,62.27
2023-10-05T05:26:23.828Z,62.20
2023-10-05T05:27:30.489Z,62.12
2023-10-05T05:28:35.955Z,61.89
2023-10-05T05:29:39.584Z,61.58
2023-10-05T05:30:42.109Z,61.51
2023-10-05T05:31:45.378Z,61.57
2023-10-05T05:32:48.766Z,61.69
2023-10-05T05:33:51.931Z,61.42
2023-10-05T05:34:54.121Z,61.19
2023-10-05T05:35:57.297Z,61.39
2023-10-05T05:36:59.650Z,61.43
2023-10-05T05:38:03.259Z,61.17
2023-10-05T05:39:05.991Z,61.52
2023-10-05T05:40:13.953Z,61.40
2023-10-05T05:41:17.551Z,61.47
2023-10-05T05:42:20.712Z,61.94
2023-10-05T05:43:22.908Z,61.83
2023-10-05T05:44:29.981Z,61.77
2023-10-05T05:45:32.663Z,61.66
2023-10-05T05:46:35.912Z,61.60
2023-10-05T05:47:39.921Z,61.77
2023-10-05T05:48:49.749Z,61.49
2023-10-05T05:49:52.433Z,61.63
2023-10-05T05:50:56.120Z,61.52
2023-10-05T05:52:00.563Z,61.51
2023-10-05T05:53:03.165Z,61.58
2023-10-05T05:54:06.636Z,61.58
2023-10-05T05:55:11.885Z,61.34
2023-10-05T05:56:18.455Z,61.49
2023-10-05T05:57:21.797Z,61.59
2023-10-05T05:58:24.411Z,61.67
2023-10-05T05:59:28.934Z,61.60
2023-10-05T06:00:31.123Z,61.86
2023-10-05T06:01:36.876Z,61.62
2023-10-05T06:02:40.619Z,61.22
2023-10-05T06:03:45.682Z,61.36
2023-10-05T06:04:49.245Z,61.01
2023-10-05T06:05:52.746Z,60.90
2023-10-05T06:06:54.911Z,60.85
2023-10-05T06:08:02.447Z,60.82
2023-10-05T06:09:08.566Z,60.89
2023-10-05T06:10:16.389Z,60.84
2023-10-05T06:11:20.402Z,60.75
2023-10-05T06:12:23.950Z,60.58
2023-10-05T06:13:26.232Z,60.63
2023-10-05T06:14:32.867Z,60.51
2023-10-05T06:15:36.397Z,60.45
2023-10-05T06:16:39.770Z,60.66
2023-10-05T06:17:42.393Z,60.56
2023-10-05T06:18:45.623Z,60.48
2023-10-05T06:19:49.110Z,60.72
2023-10-05T06:20:52.260Z,60.87
2023-10-05T06:21:54.420Z,60.68
2023-10-05T06:22:57.610Z,60.60
2023-10-05T06:23:59.820Z,60.56
2023-10-05T06:25:03.004Z,60.31
2023-10-05T06:26:05.272Z,60.31
2023-10-05T06:27:08.940Z,60.79
2023-10-05T06:28:11.188Z,60.81
2023-10-05T06:29:14.725Z,60.56
2023-10-05T06:30:18.783Z,60.83
2023-10-05T06:31:21.042Z,60.76
2023-10-05T06:32:24.227Z,60.74
2023-10-05T06:33:27.082Z,60.75
2023-10-05T06:34:30.279Z,60.64
2023-10-05T06:35:33.808Z,60.40
2023-10-05T06:36:38.416Z,60.65
2023-10-05T06:37:41.221Z,60.14
2023-10-05T06:38:45.573Z,60.27
2023-10-05T06:39:47.761Z,60.53
2023-10-05T06:40:51.023Z,60.49
2023-10-05T06:41:53.175Z,60.48
2023-10-05T06:42:58.936Z,60.45
2023-10-05T06:44:01.643Z,60.02
2023-10-05T06:45:10.679Z,60.12
2023-10-05T06:46:18.969Z,59.96
2023-10-05T06:47:37.218Z,59.49
2023-10-05T06:48:41.561Z,59.64
2023-10-05T06:49:44.938Z,59.72
2023-10-05T06:50:48.196Z,59.45
2023-10-05T06:51:51.735Z,59.32
2023-10-05T06:52:54.390Z,59.24
2023-10-05T06:53:59.214Z,59.41
2023-10-05T06:55:01.497Z,59.71
2023-10-05T06:56:04.790Z,59.81
2023-10-05T06:57:06.999Z,59.81
2023-10-05T06:58:10.274Z,60.00
2023-10-05T06:59:12.506Z,60.02
2023-10-05T07:00:18.033Z,59.77
2023-10-05T07:01:24.844Z,59.80
2023-10-05T07:02:31.606Z,59.58
2023-10-05T07:03:37.801Z,59.32
2023-10-05T07:04:40.980Z,59.36
2023-10-05T07:05:49.637Z,59.41
2023-10-05T07:06:54.211Z,59.31
2023-10-05T07:07:57.400Z,59.34
2023-10-05T07:09:00.856Z,59.31
2023-10-05T07:10:05.093Z,59.19
2023-10-05T07:11:08.434Z,58.96
2023-10-05T07:12:10.768Z,59.44
2023-10-05T07:13:14.012Z,58.79
2023-10-05T07:14:17.406Z,58.13
2023-10-05T07:15:29.620Z,58.36
2023-10-05T07:16:33.825Z,58.61
2023-10-05T07:17:38.643Z,58.47
2023-10-05T07:18:41.172Z,58.40
2023-10-05T07:19:49.430Z,58.66
2023-10-05T07:20:51.709Z,58.88
2023-10-05T07:21:54.925Z,58.74
2023-10-05T07:22:59.706Z,58.47
2023-10-05T07:24:02.927Z,58.30
2023-10-05T07:25:09.801Z,58.42
2023-10-05T07:26:15.754Z,58.55
2023-10-05T07:27:18.559Z,58.42
2023-10-05T07:28:20.847Z,58.30
2023-10-05T07:29:31.064Z,58.15
2023-10-05T07:30:36.678Z,58.22
2023-10-05T07:31:41.329Z,57.94
2023-10-05T07:32:44.039Z,58.08
2023-10-05T07:33:47.317Z,58.42
2023-10-05T07:34:50.975Z,57.99
2023-10-05T07:35:54.908Z,57.03
2023-10-05T07:36:58.696Z,56.66
2023-10-05T07:38:02.161Z,57.08
2023-10-05T07:39:05.803Z,56.80
2023-10-05T07:40:09.966Z,55.87
2023-10-05T07:41:13.037Z,55.79
2023-10-05T07:42:15.679Z,55.65
2023-10-05T07:43:19.501Z,55.42
2023-10-05T07:44:22.061Z,55.23
2023-10-05T07:45:25.338Z,55.09
2023-10-05T07:46:27.703Z,55.31
2023-10-05T07:47:32.301Z,55.16
2023-10-05T07:48:36.116Z,55.30
2023-10-05T07:49:48.192Z,55.20
2023-10-05T07:50:51.128Z,54.80
2023-10-05T07:51:57.874Z,54.91
2023-10-05T07:53:00.064Z,55.13
2023-10-05T07:54:03.245Z,54.38
2023-10-05T07:55:07.232Z,53.60
2023-10-05T07:56:10.681Z,53.18
2023-10-05T07:57:12.985Z,53.06
2023-10-05T07:58:16.379Z,51.92
2023-10-05T07:59:18.592Z,51.38
2023-10-05T08:00:22.791Z,51.47
2023-10-05T08:01:25.215Z,51.99
2023-10-05T08:02:28.632Z,51.45
2023-10-05T08:03:34.388Z,50.82
2023-10-05T08:04:38.033Z,50.45
2023-10-05T08:05:40.373Z,49.89
2023-10-05T08:06:45.304Z,50.10
2023-10-05T08:07:47.688Z,50.75
2023-10-05T08:08:51.247Z,50.33
2023-10-05T08:09:56.274Z,50.44
2023-10-05T08:11:00.346Z,49.85
2023-10-05T08:12:02.465Z,47.66
2023-10-05T08:13:06.988Z,47.98
2023-10-05T08:14:09.614Z,47.71
2023-10-05T08:15:15.367Z,47.74
2023-10-05T08:16:18.114Z,48.27
2023-10-05T08:17:21.291Z,47.80
2023-10-05T08:18:23.598Z,47.98
2023-10-05T08:19:29.210Z,47.82
2023-10-05T08:20:32.438Z,47.41
2023-10-05T08:21:35.621Z,46.73
2023-10-05T08:22:37.828Z,46.61
2023-10-05T08:23:41.186Z,46.69
2023-10-05T08:24:44.251Z,46.65
2023-10-05T08:25:47.891Z,47.08
2023-10-05T08:26:50.993Z,46.74
2023-10-05T08:27:56.990Z,46.19
2023-10-05T08:29:00.756Z,46.07
2023-10-05T08:30:04.877Z,45.88
2023-10-05T08:31:08.563Z,46.01
2023-10-05T08:32:14.746Z,46.03
2023-10-05T08:33:20.809Z,45.47
2023-10-05T08:34:24.156Z,44.96
2023-10-05T08:35:27.693Z,45.19
2023-10-05T08:36:30.959Z,45.26
2023-10-05T08:37:43.711Z,45.18
2023-10-05T08:38:50.367Z,44.23
2023-10-05T08:39:53.203Z,44.87
2023-10-05T08:40:56.762Z,44.76
2023-10-05T08:42:04.168Z,44.00
2023-10-05T08:43:12.461Z,43.31
2023-10-05T08:44:27.496Z,43.81
2023-10-05T08:45:33.646Z,43.85
2023-10-05T08:46:43.324Z,43.76
2023-10-05T08:47:48.064Z,43.70
2023-10-05T08:48:50.593Z,44.02
2023-10-05T08:49:53.968Z,43.96
2023-10-05T08:51:06.395Z,44.03
2023-10-05T08:52:14.690Z,43.90
2023-10-05T08:53:20.953Z,43.66
2023-10-05T08:54:29.230Z,43.25
2023-10-05T08:55:35.326Z,42.67
2023-10-05T08:56:41.615Z,43.02
2023-10-05T08:57:43.837Z,43.29
2023-10-05T08:58:48.188Z,43.40
2023-10-05T08:59:54.217Z,42.91
2023-10-05T09:01:00.668Z,43.21
2023-10-05T09:02:03.926Z,43.09
2023-10-05T09:03:30.073Z,42.76
2023-10-05T09:04:44.611Z,42.01
2023-10-05T09:06:20.024Z,41.79
2023-10-05T09:07:34.478Z,42.30
2023-10-05T09:08:44.669Z,42.60
2023-10-05T09:09:55.429Z,43.05
2023-10-05T09:10:59.611Z,42.51
2023-10-05T09:12:33.933Z,42.48
2023-10-05T09:13:45.632Z,41.37
2023-10-05T09:15:06.212Z,41.54
2023-10-05T09:16:08.373Z,41.03
2023-10-05T09:17:11.858Z,41.25
2023-10-05T09:18:19.685Z,41.45
2023-10-05T09:19:27.377Z,40.78
2023-10-05T09:20:32.323Z,40.35
2023-10-05T09:21:46.839Z,39.97
2023-10-05T09:22:50.874Z,40.43
2023-10-05T09:23:53.008Z,40.21
2023-10-05T09:24:59.235Z,39.93
2023-10-05T09:26:02.406Z,40.47
2023-10-05T09:27:14.271Z,40.40
2023-10-05T09:28:30.101Z,39.33
2023-10-05T09:29:34.361Z,39.79
2023-10-05T09:30:47.915Z,39.95
2023-10-05T09:31:55.656Z,40.37
2023-10-05T09:33:08.480Z,40.72
2023-10-05T09:34:15.637Z,40.64
2023-10-05T09:35:28.967Z,39.71
2023-10-05T09:36:31.736Z,40.08
2023-10-05T09:37:40.621Z,40.01
2023-10-05T09:38:44.772Z,39.90
2023-10-05T09:39:50.644Z,39.38
2023-10-05T09:40:55.817Z,39.29
2023-10-05T09:42:02.470Z,39.81
2023-10-05T09:43:08.103Z,38.97
2023-10-05T09:44:16.849Z,39.45
2023-10-05T09:45:21.354Z,40.11
2023-10-05T09:46:25.576Z,40.82
2023-10-05T09:47:33.922Z,40.89
2023-10-05T09:48:38.464Z,40.34
2023-10-05T09:49:41.943Z,38.68
2023-10-05T09:50:45.771Z,38.78
2023-10-05T09:51:50.188Z,38.95
2023-10-05T09:52:54.812Z,38.84
2023-10-05T09:54:01.117Z,38.56
2023-10-05T09:55:05.190Z,38.24
2023-10-05T09:56:13.267Z,38.44
2023-10-05T09:57:18.143Z,38.73
2023-10-05T09:58:21.741Z,38.28
2023-10-05T09:59:26.737Z,37.77
2023-10-05T10:00:31.917Z,38.03
2023-10-05T10:01:38.424Z,38.12
2023-10-05T10:02:42.605Z,38.79
2023-10-05T10:03:47.431Z,39.74
2023-10-05T10:04:51.801Z,39.31
2023-10-05T10:06:08.698Z,38.34
2023-10-05T10:07:17.573Z,38.27
2023-10-05T10:08:26.958Z,38.35
2023-10-05T10:09:29.563Z,38.48
2023-10-05T10:10:31.930Z,38.44
2023-10-05T10:11:36.753Z,38.62
2023-10-05T10:12:39.689Z,38.49
2023-10-05T10:13:43.067Z,38.88
2023-10-05T10:14:51.384Z,38.67
2023-10-05T10:15:58.324Z,38.68
2023-10-05T10:17:09.909Z,38.23
2023-10-05T10:18:16.049Z,38.15
2023-10-05T10:19:21.521Z,37.83
2023-10-05T10:20:36.689Z,37.70
2023-10-05T10:21:43.817Z,37.65
2023-10-05T10:22:57.323Z,37.47
2023-10-05T10:24:06.052Z,36.87
2023-10-05T10:25:29.860Z,36.83
2023-10-05T10:26:32.928Z,38.08
2023-10-05T10:27:39.141Z,38.38
2023-10-05T10:29:10.661Z,38.69
2023-10-05T10:30:16.488Z,38.69
2023-10-05T10:31:20.195Z,38.56
2023-10-05T10:32:26.010Z,38.71
2023-10-05T10:33:31.247Z,38.71
2023-10-05T10:34:50.911Z,37.65
2023-10-05T10:35:53.697Z,37.99
2023-10-05T10:36:58.358Z,38.11
2023-10-05T10:38:07.384Z,37.53
2023-10-05T10:39:24.570Z,37.25
2023-10-05T10:40:28.281Z,36.95
2023-10-05T10:41:32.098Z,37.12
2023-10-05T10:42:48.980Z,36.96
2023-10-05T10:43:54.435Z,36.98
2023-10-05T10:44:59.728Z,36.36
2023-10-05T10:46:07.738Z,35.74
2023-10-05T10:47:10.423Z,35.50
2023-10-05T10:48:23.588Z,35.44
2023-10-05T10:49:25.778Z,35.65
2023-10-05T10:50:32.213Z,36.45
2023-10-05T10:51:38.344Z,36.97
2023-10-05T10:52:41.854Z,36.48
2023-10-05T10:53:45.227Z,36.73
2023-10-05T10:54:50.118Z,36.60
2023-10-05T10:55:59.439Z,36.62
2023-10-05T10:57:07.776Z,36.07
2023-10-05T10:58:14.873Z,36.37
2023-10-05T10:59:27.899Z,36.42
2023-10-05T11:00:40.138Z,36.46
2023-10-05T11:01:44.968Z,37.12
2023-10-05T11:02:48.340Z,36.79
2023-10-05T11:03:56.863Z,37.11
2023-10-05T11:05:06.054Z,37.51
2023-10-05T11:06:11.091Z,37.45
2023-10-05T11:07:14.720Z,37.00
2023-10-05T11:08:21.612Z,37.15
2023-10-05T11:09:35.391Z,36.46
2023-10-05T11:10:38.960Z,36.54
2023-10-05T11:11:42.870Z,36.25
2023-10-05T11:12:45.511Z,36.51
2023-10-05T11:13:56.292Z,36.69
2023-10-05T11:15:11.031Z,36.85
2023-10-05T11:16:16.661Z,36.70
2023-10-05T11:17:31.630Z,36.61
2023-10-05T11:18:36.024Z,36.79
2023-10-05T11:19:40.044Z,36.72
2023-10-05T11:20:52.817Z,36.51
2023-10-05T11:21:56.039Z,36.68
2023-10-05T11:23:04.558Z,36.65
2023-10-05T11:24:08.622Z,37.06
2023-10-05T11:25:18.149Z,37.04
2023-10-05T11:26:30.415Z,37.15
2023-10-05T11:27:37.810Z,37.56
2023-10-05T11:28:41.156Z,37.22
2023-10-05T11:29:45.925Z,37.55
2023-10-05T11:31:03.690Z,38.02
2023-10-05T11:32:43.051Z,36.69
2023-10-05T11:34:44.675Z,37.71
2023-10-05T11:35:21.307Z,37.75
2023-10-05T11:36:29.509Z,38.49
2023-10-05T11:37:34.016Z,37.39
2023-10-05T11:38:37.756Z,37.59
2023-10-05T11:39:41.166Z,37.76
2023-10-05T11:40:50.751Z,37.22
2023-10-05T11:41:58.208Z,37.38
2023-10-05T11:43:06.134Z,36.83
2023-10-05T11:44:13.339Z,37.05
2023-10-05T11:45:18.041Z,37.49
2023-10-05T11:46:26.102Z,37.90
2023-10-05T11:47:36.588Z,37.97
2023-10-05T11:48:42.356Z,38.22
2023-10-05T11:49:47.504Z,37.66
2023-10-05T11:50:56.414Z,37.05
2023-10-05T11:52:01.856Z,37.38
2023-10-05T11:53:11.477Z,37.43
2023-10-05T11:54:16.674Z,37.16
2023-10-05T11:55:19.307Z,36.88
2023-10-05T11:56:22.435Z,37.35
2023-10-05T11:57:27.986Z,36.85
2023-10-05T11:58:31.214Z,37.44
2023-10-05T11:59:36.509Z,37.66
2023-10-05T12:00:39.702Z,37.99
2023-10-05T12:01:42.295Z,37.88
2023-10-05T12:02:45.912Z,38.18
2023-10-05T12:03:48.675Z,37.96
2023-10-05T12:04:53.506Z,38.10
2023-10-05T12:05:55.869Z,37.31
2023-10-05T12:07:00.832Z,37.35
2023-10-05T12:08:05.903Z,37.59
2023-10-05T12:09:09.759Z,37.45
2023-10-05T12:10:12.319Z,37.57
2023-10-05T12:11:16.173Z,37.43
2023-10-05T12:12:19.900Z,36.98
2023-10-05T12:13:24.739Z,36.94
2023-10-05T12:14:27.365Z,37.17
2023-10-05T12:15:32.754Z,37.01
2023-10-05T12:16:36.048Z,37.03
2023-10-05T12:17:40.741Z,36.70
2023-10-05T12:18:43.469Z,36.67
2023-10-05T12:19:46.701Z,36.33
2023-10-05T12:20:49.062Z,36.50
2023-10-05T12:21:52.206Z,36.63
2023-10-05T12:22:54.771Z,36.64
2023-10-05T12:23:57.995Z,36.45
2023-10-05T12:25:00.627Z,36.48
2023-10-05T12:26:07.820Z,36.77
2023-10-05T12:27:20.125Z,36.85
2023-10-05T12:28:24.847Z,36.53
2023-10-05T12:29:29.342Z,36.40
2023-10-05T12:30:32.478Z,36.78
2023-10-05T12:31:35.724Z,37.24
2023-10-05T12:32:39.701Z,36.49
2023-10-05T12:33:43.242Z,37.01
2023-10-05T12:34:49.544Z,37.21
2023-10-05T12:35:53.984Z,36.42
2023-10-05T12:36:56.382Z,37.33
2023-10-05T12:38:00.066Z,37.10
2023-10-05T12:39:02.853Z,37.11
2023-10-05T12:40:19.191Z,37.20
2023-10-05T12:41:21.502Z,36.92
2023-10-05T12:42:25.784Z,36.98
2023-10-05T12:43:29.292Z,36.60
2023-10-05T12:44:33.465Z,36.42
2023-10-05T12:45:35.653Z,36.62
2023-10-05T12:46:40.636Z,36.39
2023-10-05T12:47:44.123Z,36.31
2023-10-05T12:48:47.661Z,36.26
2023-10-05T12:49:50.004Z,36.78
2023-10-05T12:50:53.147Z,36.71
2023-10-05T12:51:55.380Z,36.78
2023-10-05T12:53:01.675Z,36.67
2023-10-05T12:54:10.378Z,37.09
2023-10-05T12:55:13.538Z,36.49
2023-10-05T12:56:17.040Z,36.79
2023-10-05T12:57:22.302Z,36.33
2023-10-05T12:58:25.140Z,36.62
2023-10-05T12:59:30.258Z,35.90
2023-10-05T13:00:35.639Z,36.06
2023-10-05T13:01:42.880Z,36.45
2023-10-05T13:02:45.213Z,36.25
2023-10-05T13:03:48.422Z,35.75
2023-10-05T13:04:50.686Z,36.14
2023-10-05T13:05:53.875Z,35.80
2023-10-05T13:06:56.147Z,35.15
2023-10-05T13:08:02.508Z,35.38
2023-10-05T13:09:05.743Z,35.62
2023-10-05T13:10:15.229Z,35.12
2023-10-05T13:11:19.623Z,35.42
2023-10-05T13:12:22.876Z,35.35
2023-10-05T13:13:26.391Z,35.08
2023-10-05T13:14:31.962Z,35.26
2023-10-05T13:15:35.153Z,35.24
2023-10-05T13:16:37.637Z,35.16
2023-10-05T13:17:40.365Z,35.39
2023-10-05T13:18:44.594Z,35.32
2023-10-05T13:19:47.093Z,35.31
2023-10-05T13:20:51.838Z,35.54
2023-10-05T13:21:53.995Z,35.83
2023-10-05T13:22:57.121Z,36.19
2023-10-05T13:23:59.297Z,35.39
2023-10-05T13:25:02.927Z,35.09
2023-10-05T13:26:07.460Z,35.34
2023-10-05T13:27:10.646Z,35.17
2023-10-05T13:28:12.874Z,34.99
2023-10-05T13:29:17.603Z,34.91
2023-10-05T13:30:24.170Z,34.77
2023-10-05T13:31:28.054Z,34.40
2023-10-05T13:32:32.922Z,34.31
2023-10-05T13:33:36.448Z,34.54
2023-10-05T13:34:38.687Z,34.14
2023-10-05T13:35:42.600Z,34.10
2023-10-05T13:36:46.333Z,33.93
2023-10-05T13:37:49.982Z,33.98
2023-10-05T13:38:53.158Z,33.45
2023-10-05T13:40:01.054Z,33.76
2023-10-05T13:41:15.438Z,34.03
2023-10-05T13:42:26.935Z,34.29
2023-10-05T13:43:32.059Z,34.03
2023-10-05T13:44:34.409Z,33.94
2023-10-05T13:45:43.835Z,34.10
2023-10-05T13:46:46.372Z,34.69
2023-10-05T13:47:54.545Z,34.01
2023-10-05T13:48:57.447Z,33.96
2023-10-05T13:50:09.066Z,33.82
2023-10-05T13:51:13.033Z,33.46
2023-10-05T13:52:21.737Z,33.53
2023-10-05T13:53:25.198Z,34.10
2023-10-05T13:54:28.306Z,33.65
2023-10-05T13:55:30.484Z,33.49
2023-10-05T13:56:33.742Z,33.56
2023-10-05T13:57:36.106Z,33.57
2023-10-05T13:58:39.066Z,33.93
2023-10-05T13:59:42.344Z,33.75
2023-10-05T14:00:46.115Z,33.88
2023-10-05T14:01:54.229Z,33.17
2023-10-05T14:02:59.214Z,33.25
2023-10-05T14:04:02.922Z,32.99
2023-10-05T14:05:05.625Z,33.20